Richard Lloyd Jones Jr Airport
KRVS : now visible

Aeroporto :











RITROVATECI SU...

 
LOGIN :

Iscrizione | Disclaimer

   EN    FR    IT 

 









Sommario :    VFR   VFR Marginale   IFR   IFR Intensivo   IFR Molto Intensivo
Visibilità : 
Base nubi : 
>= 8 km
>= 3000ft
5 / 8 km
1000 / 3000 ft
1500m / 5 km
500 / 1000 ft
800 / 1500m
200 / 500 ft
< 800m
< 200 ft
Simboli :   Temporali  Nebbia  Neve Forte  Precipitazioni Forti  Vento > 20 kt






- Altitudine del aeroporto : 638 ft


KRVS - Richard Lloyd Jones Jr

ULTIMO METAR :
  • 131553Z 15005KT 10SM CLR 31/21 A3015 RMK AO2 SLP210 T03060206

METARs OBSOLETI :
  • 131453Z VRB04KT 10SM CLR 29/20 A3016 RMK AO2 SLP213 T02890200 51015
  • 131353Z 20006KT 10SM CLR 27/20 A3015 RMK AO2 SLP211 T02720200
  • 131253Z 20008KT 10SM CLR 26/20 A3013 RMK AO2 SLP205 T02610200
  • 131153Z 18004KT 10SM CLR 24/21 A3011 RMK AO2 SLP198 T02440206 10272 20228 51018

TAF KRVS
Valido dal 13 a 12 ore il 14 a 12 ore UTC


131123Z 1312/1412 17005KT P6SM SCT120
FM131500 19012KT P6SM SCT250
FM140100 18005KT P6SM SCT250
FIR KZKC / America del Nord



MetMap, La meteo Aeronautica in un colpo d'occhio ! - Copyright ORBIFLY Dicembre 2007 - Disclaimer

ORBIFLY MET'MAP TEAM :

Programmazione e sviluppo : Alexandra Zaïnal
Concezione : Baudouin d'Aumeries
Supporto tecnico e logistico : Manuel Goepfert
Aiuto : Marc-Olivier Méhu
Aiuto per la traduzione : Arnaldo La Scala




FONTI E CREDITI :

   NOAA       Earth
Advisory